Time;durP1;ratioP1;P1;durP2;ratioP2;P2;SDS_P1;SDS_P2;PMS_P1;PMS_P2;Temp;Humidity;BMP_temperature;BMP_pressure;BME280_temperature;BME280_humidity;BME280_pressure;Samples;Min_cycle;Max_cycle;Signal;HPM_P1;HPM_P2
2021/11/01 00:00:22;;;;;;;20.48;2.95;;;;;;;;;;4983047;28;20506;-67
2021/11/01 00:02:48;;;;;;;18.13;2.70;;;;;;;;;;4973929;28;20050;-68
2021/11/01 00:05:15;;;;;;;19.25;3.20;;;;;;;;;;4975341;28;20053;-67
2021/11/01 00:07:41;;;;;;;16.85;2.70;;;;;;;;;;4980887;28;20065;-68
2021/11/01 00:10:10;;;;;;;18.55;3.33;;;;;;;;;;4990200;28;20244;-67
2021/11/01 00:12:37;;;;;;;17.65;3.10;;;;;;;;;;4984121;28;20053;-67
2021/11/01 00:15:03;;;;;;;16.10;3.50;;;;;;;;;;4983221;28;20442;-67
2021/11/01 00:17:30;;;;;;;19.35;3.22;;;;;;;;;;4989891;28;20062;-68
2021/11/01 00:19:56;;;;;;;15.48;3.10;;;;;;;;;;4983826;28;20383;-67
2021/11/01 00:22:23;;;;;;;17.63;3.55;;;;;;;;;;4990230;28;20048;-67
2021/11/01 00:24:50;;;;;;;15.35;3.35;;;;;;;;;;4970665;28;20467;-67
2021/11/01 00:27:16;;;;;;;20.50;3.33;;;;;;;;;;4986268;28;20042;-67
2021/11/01 00:29:43;;;;;;;16.38;3.13;;;;;;;;;;4980622;28;20128;-67
2021/11/01 00:32:10;;;;;;;17.63;4.28;;;;;;;;;;4992291;28;20070;-67
2021/11/01 00:34:36;;;;;;;13.82;2.50;;;;;;;;;;4982647;28;20054;-67
2021/11/01 00:37:03;;;;;;;16.40;2.63;;;;;;;;;;4970435;28;20049;-67
2021/11/01 00:39:29;;;;;;;9.63;2.28;;;;;;;;;;4974162;28;20046;-67
2021/11/01 00:42:00;;;;;;;21.02;3.10;;;;;;;;;;4964618;28;20053;-67
2021/11/01 00:44:26;;;;;;;14.50;2.70;;;;;;;;;;4972309;28;20055;-67
2021/11/01 00:46:53;;;;;;;15.05;2.78;;;;;;;;;;4971888;28;20069;-67
2021/11/01 00:49:20;;;;;;;18.75;2.60;;;;;;;;;;4981960;28;20060;-67
2021/11/01 00:51:47;;;;;;;20.17;3.22;;;;;;;;;;4976843;28;20054;-66
2021/11/01 00:54:13;;;;;;;12.68;3.00;;;;;;;;;;4978488;28;20062;-67
2021/11/01 00:56:39;;;;;;;16.05;3.42;;;;;;;;;;4988470;28;20495;-67
2021/11/01 00:59:06;;;;;;;12.40;2.33;;;;;;;;;;4982436;28;20055;-66
2021/11/01 01:01:33;;;;;;;14.25;2.70;;;;;;;;;;4983819;28;20054;-67
2021/11/01 01:04:01;;;;;;;17.40;2.72;;;;;;;;;;4982098;28;20077;-66
2021/11/01 01:06:27;;;;;;;21.15;2.75;;;;;;;;;;4991802;28;20062;-66
2021/11/01 01:08:54;;;;;;;26.13;3.17;;;;;;;;;;4986223;28;20499;-67
2021/11/01 01:11:20;;;;;;;13.27;2.33;;;;;;;;;;4977894;28;20536;-67
2021/11/01 01:13:47;;;;;;;16.75;2.53;;;;;;;;;;4983965;28;20058;-67
2021/11/01 01:18:48;;;;;;;18.08;2.65;;;;;;;;;;4991375;28;20052;-66
2021/11/01 01:23:59;;;;;;;17.83;2.40;;;;;;;;;;4984467;28;20418;-67
2021/11/01 01:26:26;;;;;;;15.45;3.30;;;;;;;;;;4974094;28;20060;-67
2021/11/01 01:28:53;;;;;;;19.73;4.03;;;;;;;;;;4982982;28;20046;-67
2021/11/01 01:31:19;;;;;;;16.95;2.50;;;;;;;;;;4982864;28;20073;-67
2021/11/01 01:33:46;;;;;;;11.80;2.35;;;;;;;;;;4980148;28;20066;-67
2021/11/01 01:36:12;;;;;;;10.85;2.28;;;;;;;;;;4971321;28;20415;-66
2021/11/01 01:38:39;;;;;;;15.93;2.50;;;;;;;;;;4957511;28;20047;-66
2021/11/01 01:41:16;;;;;;;17.25;2.67;;;;;;;;;;4966069;28;20058;-67
2021/11/01 01:43:47;;;;;;;14.63;2.17;;;;;;;;;;4963701;28;20050;-66
2021/11/01 01:46:13;;;;;;;14.52;2.47;;;;;;;;;;4965199;28;20065;-67
2021/11/01 01:48:41;;;;;;;16.17;2.58;;;;;;;;;;4986105;28;20058;-67
2021/11/01 01:51:10;;;;;;;18.63;2.25;;;;;;;;;;4983807;28;20065;-67
2021/11/01 01:53:37;;;;;;;13.60;2.40;;;;;;;;;;4988035;28;20802;-67
2021/11/01 01:56:04;;;;;;;14.20;2.80;;;;;;;;;;4981762;28;20055;-67
2021/11/01 01:58:32;;;;;;;14.52;2.22;;;;;;;;;;4990044;28;20490;-67
2021/11/01 02:01:08;;;;;;;15.50;2.38;;;;;;;;;;4976408;28;20061;-67
2021/11/01 02:03:36;;;;;;;9.60;2.63;;;;;;;;;;4977920;28;20061;-67
2021/11/01 02:06:08;;;;;;;13.00;2.15;;;;;;;;;;4988219;28;20396;-67
2021/11/01 02:08:40;;;;;;;10.10;2.05;;;;;;;;;;4981395;28;20070;-66
2021/11/01 02:11:09;;;;;;;12.50;1.80;;;;;;;;;;4961533;28;20061;-66
2021/11/01 02:13:37;;;;;;;15.75;1.98;;;;;;;;;;4962314;28;20050;-66
2021/11/01 02:16:04;;;;;;;16.00;2.75;;;;;;;;;;4979465;28;20068;-66
2021/11/01 02:18:34;;;;;;;14.73;2.88;;;;;;;;;;4964211;28;20050;-67
2021/11/01 02:21:05;;;;;;;11.95;2.15;;;;;;;;;;4981185;28;20046;-66
2021/11/01 02:23:35;;;;;;;15.32;1.63;;;;;;;;;;4987276;28;20053;-66
2021/11/01 02:26:02;;;;;;;13.00;2.50;;;;;;;;;;4985921;28;20057;-66
2021/11/01 02:28:34;;;;;;;9.88;1.90;;;;;;;;;;4985159;28;20057;-66
2021/11/01 02:31:01;;;;;;;15.73;2.45;;;;;;;;;;4982423;28;20060;-66
2021/11/01 02:33:28;;;;;;;17.92;3.22;;;;;;;;;;4989758;28;20049;-66
2021/11/01 02:35:54;;;;;;;12.35;2.33;;;;;;;;;;4969246;28;20061;-66
2021/11/01 02:38:23;;;;;;;13.63;2.30;;;;;;;;;;4983838;28;20451;-66
2021/11/01 02:40:49;;;;;;;16.40;2.30;;;;;;;;;;4976182;28;20054;-66
2021/11/01 02:43:16;;;;;;;9.15;1.80;;;;;;;;;;4973021;28;20042;-66
2021/11/01 02:45:42;;;;;;;11.95;2.00;;;;;;;;;;4976648;28;20129;-66
2021/11/01 02:48:09;;;;;;;13.30;1.77;;;;;;;;;;4979185;28;20066;-67
2021/11/01 02:50:35;;;;;;;12.93;2.22;;;;;;;;;;4979707;28;20050;-66
2021/11/01 02:53:02;;;;;;;15.63;2.22;;;;;;;;;;4976904;28;20503;-67
2021/11/01 02:55:29;;;;;;;11.00;2.05;;;;;;;;;;4986453;28;20054;-67
2021/11/01 02:57:55;;;;;;;14.80;1.90;;;;;;;;;;4972579;28;20046;-66
2021/11/01 03:00:24;;;;;;;13.55;1.98;;;;;;;;;;4982520;28;20109;-67
2021/11/01 03:02:51;;;;;;;11.57;1.67;;;;;;;;;;4973672;28;20050;-67
2021/11/01 03:05:19;;;;;;;14.98;2.15;;;;;;;;;;4976736;28;20062;-67
2021/11/01 03:07:47;;;;;;;20.83;3.00;;;;;;;;;;4986584;28;20054;-67
2021/11/01 03:10:13;;;;;;;13.02;2.00;;;;;;;;;;4979469;28;20065;-67
2021/11/01 03:12:40;;;;;;;13.77;1.77;;;;;;;;;;4987896;28;20410;-67
2021/11/01 03:15:09;;;;;;;12.73;1.90;;;;;;;;;;4976165;28;20057;-67
2021/11/01 03:17:39;;;;;;;19.02;2.58;;;;;;;;;;4984664;28;20046;-67
2021/11/01 03:20:09;;;;;;;9.25;1.85;;;;;;;;;;4981631;28;20129;-67
2021/11/01 03:22:37;;;;;;;12.48;2.38;;;;;;;;;;4979234;28;20058;-67
2021/11/01 03:25:28;;;;;;;15.60;1.97;;;;;;;;;;4976160;28;20057;-67
2021/11/01 03:27:56;;;;;;;8.13;2.00;;;;;;;;;;4968837;28;20053;-67
2021/11/01 03:30:22;;;;;;;6.78;1.70;;;;;;;;;;4985104;28;20054;-67
2021/11/01 03:32:49;;;;;;;11.80;1.75;;;;;;;;;;4975796;28;20270;-67
2021/11/01 03:35:17;;;;;;;12.35;2.08;;;;;;;;;;4989913;28;20054;-66
2021/11/01 03:37:45;;;;;;;12.77;1.90;;;;;;;;;;4983534;28;20531;-66
2021/11/01 03:40:17;;;;;;;14.98;1.85;;;;;;;;;;4977760;28;20050;-67
2021/11/01 03:42:44;;;;;;;13.70;2.28;;;;;;;;;;4991140;28;20070;-67
2021/11/01 03:45:11;;;;;;;14.32;1.77;;;;;;;;;;4981881;28;20058;-67
2021/11/01 03:47:42;;;;;;;11.20;2.65;;;;;;;;;;4992711;28;20197;-67
2021/11/01 03:50:45;;;;;;;9.20;2.20;;;;;;;;;;4986151;28;20060;-67
2021/11/01 03:53:01;;;;;;;10.63;1.90;;;;;;;;;;4985418;28;20051;-67
2021/11/01 03:55:29;;;;;;;19.73;1.90;;;;;;;;;;4982017;28;20050;-67
2021/11/01 03:57:57;;;;;;;13.37;1.77;;;;;;;;;;4963565;28;20054;-67
2021/11/01 04:00:26;;;;;;;10.48;2.05;;;;;;;;;;4960920;28;20548;-67
2021/11/01 04:02:54;;;;;;;16.65;2.30;;;;;;;;;;4992408;28;20503;-67
2021/11/01 04:05:20;;;;;;;13.70;2.25;;;;;;;;;;4993672;28;20050;-66
2021/11/01 04:07:47;;;;;;;10.02;2.13;;;;;;;;;;4976333;28;20050;-66
2021/11/01 04:10:14;;;;;;;10.88;1.70;;;;;;;;;;4986995;28;20455;-67
2021/11/01 04:12:41;;;;;;;12.60;2.22;;;;;;;;;;4977780;28;20700;-67
2021/11/01 04:15:11;;;;;;;12.07;2.03;;;;;;;;;;4986233;28;20053;-67
2021/11/01 04:22:42;;;;;;;12.85;2.15;;;;;;;;;;4989518;28;20394;-67
2021/11/01 04:25:09;;;;;;;9.05;1.80;;;;;;;;;;4982564;28;20527;-67
2021/11/01 04:27:36;;;;;;;13.85;2.30;;;;;;;;;;4983683;28;20500;-67
2021/11/01 04:30:04;;;;;;;17.08;2.22;;;;;;;;;;4980903;28;20057;-67
2021/11/01 04:35:06;;;;;;;12.93;1.90;;;;;;;;;;4982353;28;20050;-67
2021/11/01 04:37:33;;;;;;;11.90;2.47;;;;;;;;;;4984475;28;20041;-67
2021/11/01 04:42:49;;;;;;;11.15;2.10;;;;;;;;;;4980649;28;20052;-67
2021/11/01 04:53:37;;;;;;;7.65;1.75;;;;;;;;;;4976504;28;20058;-67
2021/11/01 04:56:04;;;;;;;;;;;;;;;;;;4988317;28;20045;-67
2021/11/01 04:58:32;;;;;;;11.73;2.20;;;;;;;;;;4971544;28;19930;-67
2021/11/01 05:00:58;;;;;;;15.98;2.33;;;;;;;;;;4985855;28;20057;-67
2021/11/01 05:03:34;;;;;;;17.77;2.75;;;;;;;;;;4989649;28;20039;-67
2021/11/01 05:06:00;;;;;;;13.20;2.30;;;;;;;;;;4972528;28;20424;-67
2021/11/01 05:08:36;;;;;;;9.35;1.92;;;;;;;;;;4985786;28;20589;-67
2021/11/01 05:11:11;;;;;;;11.30;2.28;;;;;;;;;;4976980;28;20061;-67
2021/11/01 05:13:37;;;;;;;10.20;2.13;;;;;;;;;;4987679;28;20065;-67
2021/11/01 05:18:40;;;;;;;12.43;2.30;;;;;;;;;;4989377;28;20574;-67
2021/11/01 05:23:49;;;;;;;11.27;2.22;;;;;;;;;;4984305;28;20054;-67
2021/11/01 05:26:21;;;;;;;13.30;2.22;;;;;;;;;;4986896;28;20056;-67
2021/11/01 05:28:51;;;;;;;16.42;2.65;;;;;;;;;;4980618;28;20061;-66
2021/11/01 05:31:21;;;;;;;12.38;2.33;;;;;;;;;;4988397;28;20062;-67
2021/11/01 05:33:55;;;;;;;10.88;2.25;;;;;;;;;;4980449;28;20459;-67
2021/11/01 05:36:21;;;;;;;8.43;2.15;;;;;;;;;;4979906;28;20060;-67
2021/11/01 05:38:49;;;;;;;17.77;2.50;;;;;;;;;;4989469;28;20065;-67
2021/11/01 05:41:16;;;;;;;13.23;2.33;;;;;;;;;;4988781;28;20050;-66
2021/11/01 05:43:42;;;;;;;9.90;2.30;;;;;;;;;;4987938;28;20423;-67
2021/11/01 05:46:08;;;;;;;9.18;1.95;;;;;;;;;;4971336;28;20523;-67
2021/11/01 05:48:36;;;;;;;13.18;1.90;;;;;;;;;;4984395;28;20081;-67
2021/11/01 05:51:03;;;;;;;11.85;2.10;;;;;;;;;;4973265;28;20061;-67
2021/11/01 05:53:34;;;;;;;9.48;1.70;;;;;;;;;;4988526;28;20046;-67
2021/11/01 06:01:23;;;;;;;12.95;2.08;;;;;;;;;;4981309;28;20046;-67
2021/11/01 06:04:14;;;;;;;10.68;2.15;;;;;;;;;;4971234;28;20058;-67
2021/11/01 06:14:39;;;;;;;18.90;2.20;;;;;;;;;;4978537;28;20050;-67
2021/11/01 06:17:06;;;;;;;11.18;1.90;;;;;;;;;;4984218;28;20050;-67
2021/11/01 06:19:32;;;;;;;11.40;2.03;;;;;;;;;;4975171;28;20061;-67
2021/11/01 06:21:59;;;;;;;9.30;1.60;;;;;;;;;;4983248;28;20056;-67
2021/11/01 06:24:48;;;;;;;12.45;1.95;;;;;;;;;;4976876;28;20054;-67
2021/11/01 06:27:16;;;;;;;17.92;1.92;;;;;;;;;;4982901;28;20046;-67
2021/11/01 06:43:28;;;;;;;18.02;2.25;;;;;;;;;;4954264;28;20072;-67
2021/11/01 06:57:16;;;;;;;11.18;2.17;;;;;;;;;;4976547;28;20057;-67
2021/11/01 07:18:45;;;;;;;14.82;3.00;;;;;;;;;;4970935;28;20531;-67
2021/11/01 07:24:24;;;;;;;17.80;1.92;;;;;;;;;;4978867;28;20598;-67
2021/11/01 08:30:01;;;;;;;15.90;2.40;;;;;;;;;;4979869;28;20058;-66
2021/11/01 08:40:49;;;;;;;9.75;1.60;;;;;;;;;;4953394;28;20073;-66
2021/11/01 09:08:10;;;;;;;11.02;2.13;;;;;;;;;;4972788;28;20046;-67
2021/11/01 09:21:52;;;;;;;10.63;2.50;;;;;;;;;;4981345;28;20058;-67
2021/11/01 09:26:50;;;;;;;11.20;2.63;;;;;;;;;;4979182;28;20078;-67
2021/11/01 09:37:56;;;;;;;17.90;2.50;;;;;;;;;;4986913;28;20065;-67
2021/11/01 09:43:04;;;;;;;8.98;2.20;;;;;;;;;;4986336;28;20050;-67
2021/11/01 09:45:34;;;;;;;7.32;2.63;;;;;;;;;;4973627;28;20388;-67
2021/11/01 09:48:01;;;;;;;9.52;1.90;;;;;;;;;;4981785;28;20455;-67
2021/11/01 09:50:28;;;;;;;11.57;2.60;;;;;;;;;;4978276;28;20050;-67
2021/11/01 09:52:59;;;;;;;10.35;2.55;;;;;;;;;;4986384;28;20073;-68
2021/11/01 10:01:08;;;;;;;6.82;2.05;;;;;;;;;;4976792;28;20137;-67
2021/11/01 10:03:36;;;;;;;15.30;3.00;;;;;;;;;;4983109;28;20061;-67
2021/11/01 10:06:03;;;;;;;8.05;1.85;;;;;;;;;;4986511;28;20046;-67
2021/11/01 10:08:31;;;;;;;9.30;2.25;;;;;;;;;;4977326;28;20128;-67
2021/11/01 10:10:58;;;;;;;9.77;2.08;;;;;;;;;;4985817;28;20069;-67
2021/11/01 10:13:30;;;;;;;14.60;2.38;;;;;;;;;;4976460;28;20066;-67
2021/11/01 10:18:51;;;;;;;5.60;1.77;;;;;;;;;;4981072;28;20054;-67
2021/11/01 10:21:18;;;;;;;10.48;1.95;;;;;;;;;;4985972;28;20483;-67
2021/11/01 10:23:46;;;;;;;9.48;1.80;;;;;;;;;;4985469;28;20072;-68
2021/11/01 10:26:16;;;;;;;15.65;1.65;;;;;;;;;;4978850;28;20046;-67
2021/11/01 10:28:47;;;;;;;13.07;2.00;;;;;;;;;;4980097;28;20523;-67
2021/11/01 10:31:16;;;;;;;12.82;2.20;;;;;;;;;;4979811;28;20700;-68
2021/11/01 10:33:46;;;;;;;9.02;2.60;;;;;;;;;;4986574;28;20054;-67
2021/11/01 10:36:24;;;;;;;9.43;1.70;;;;;;;;;;4980423;28;20050;-67
2021/11/01 10:38:54;;;;;;;11.10;2.22;;;;;;;;;;4995780;28;20058;-67
2021/11/01 10:41:42;;;;;;;12.55;2.47;;;;;;;;;;4975995;28;20049;-67
2021/11/01 11:11:31;;;;;;;13.13;2.05;;;;;;;;;;4975594;28;20054;-67
2021/11/01 11:14:37;;;;;;;10.85;1.98;;;;;;;;;;4983881;28;20383;-67
2021/11/01 11:33:44;;;;;;;12.32;1.80;;;;;;;;;;4978146;28;20049;-67
2021/11/01 11:39:37;;;;;;;9.25;1.75;;;;;;;;;;4987035;28;20057;-67
2021/11/01 11:47:13;;;;;;;11.68;1.55;;;;;;;;;;4970864;28;20077;-67
2021/11/01 11:49:40;;;;;;;14.13;2.20;;;;;;;;;;4971248;28;20061;-67
2021/11/01 11:52:10;;;;;;;9.98;1.75;;;;;;;;;;4980000;28;20145;-67
2021/11/01 11:54:49;;;;;;;6.30;1.48;;;;;;;;;;4984295;28;20657;-67
2021/11/01 11:57:20;;;;;;;10.45;1.70;;;;;;;;;;4976234;28;20054;-67
2021/11/01 11:59:47;;;;;;;10.55;1.58;;;;;;;;;;4983903;28;20054;-67
2021/11/01 12:02:14;;;;;;;10.45;1.55;;;;;;;;;;4977030;28;20054;-67
2021/11/01 12:04:48;;;;;;;6.90;1.70;;;;;;;;;;4983954;28;20545;-67
2021/11/01 12:07:16;;;;;;;7.72;1.55;;;;;;;;;;4980756;28;20488;-67
2021/11/01 12:09:59;;;;;;;7.35;1.27;;;;;;;;;;4989775;28;20090;-67
2021/11/01 12:17:21;;;;;;;8.52;1.42;;;;;;;;;;4983837;28;20396;-67
2021/11/01 12:19:47;;;;;;;6.20;1.40;;;;;;;;;;4975048;28;20042;-66
2021/11/01 12:22:31;;;;;;;6.82;1.13;;;;;;;;;;4987595;28;20054;-67
2021/11/01 12:24:58;;;;;;;6.88;1.40;;;;;;;;;;4978116;28;20050;-67
2021/11/01 12:27:25;;;;;;;12.23;1.67;;;;;;;;;;4989100;28;20054;-67
2021/11/01 12:29:52;;;;;;;8.88;1.50;;;;;;;;;;4982078;28;20046;-67
2021/11/01 12:32:19;;;;;;;5.93;1.05;;;;;;;;;;4982814;28;20725;-67
2021/11/01 12:34:59;;;;;;;8.70;1.40;;;;;;;;;;4977775;28;20398;-67
2021/11/01 12:37:31;;;;;;;6.38;1.30;;;;;;;;;;4986430;28;20054;-67
2021/11/01 12:40:06;;;;;;;9.23;1.17;;;;;;;;;;4986798;28;20054;-67
2021/11/01 12:48:01;;;;;;;9.55;1.17;;;;;;;;;;4974447;28;20350;-67
2021/11/01 12:59:04;;;;;;;9.70;1.73;;;;;;;;;;4977928;28;20054;-67
2021/11/01 13:01:30;;;;;;;9.63;1.40;;;;;;;;;;4973393;28;20046;-67
2021/11/01 13:04:10;;;;;;;4.13;0.95;;;;;;;;;;4978372;28;20056;-67
2021/11/01 13:09:34;;;;;;;6.95;1.67;;;;;;;;;;4987365;28;20085;-67
2021/11/01 13:19:51;;;;;;;11.27;1.30;;;;;;;;;;4986482;28;20054;-67
2021/11/01 13:22:39;;;;;;;12.02;2.35;;;;;;;;;;4979320;28;20050;-67
2021/11/01 13:25:22;;;;;;;5.72;1.52;;;;;;;;;;4986746;28;20060;-67
2021/11/01 13:36:41;;;;;;;9.30;1.60;;;;;;;;;;4902620;28;20060;-67
2021/11/01 13:39:10;;;;;;;8.88;1.60;;;;;;;;;;4979110;28;20054;-67
2021/11/01 13:41:44;;;;;;;9.77;1.92;;;;;;;;;;4967198;28;20046;-67
2021/11/01 13:44:12;;;;;;;7.03;1.23;;;;;;;;;;4973422;28;20042;-67
2021/11/01 13:46:43;;;;;;;9.30;1.90;;;;;;;;;;4986652;28;20053;-67
2021/11/01 13:49:10;;;;;;;7.88;1.42;;;;;;;;;;4978063;28;20054;-67
2021/11/01 13:51:37;;;;;;;9.48;1.55;;;;;;;;;;4976183;28;20423;-67
2021/11/01 13:54:14;;;;;;;4.45;1.23;;;;;;;;;;4985251;28;20460;-67
2021/11/01 13:56:46;;;;;;;11.07;1.52;;;;;;;;;;4970209;28;20518;-67
2021/11/01 14:00:12;;;;;;;7.10;1.00;;;;;;;;;;4987476;28;20093;-67
2021/11/01 14:13:02;;;;;;;5.00;1.35;;;;;;;;;;4976691;28;20057;-67
2021/11/01 14:15:55;;;;;;;12.90;1.83;;;;;;;;;;4984644;28;20058;-67
2021/11/01 14:29:20;;;;;;;5.65;1.20;;;;;;;;;;4978238;28;20051;-68
2021/11/01 14:36:56;;;;;;;8.15;1.30;;;;;;;;;;4979996;28;20101;-67
2021/11/01 15:01:29;;;;;;;11.65;1.60;;;;;;;;;;5002501;28;20368;-67
2021/11/01 15:15:06;;;;;;;10.82;1.67;;;;;;;;;;4992545;28;20054;-67
2021/11/01 15:17:42;;;;;;;8.90;1.52;;;;;;;;;;5003514;28;20068;-67
2021/11/01 15:25:42;;;;;;;11.82;1.33;;;;;;;;;;5003659;28;19946;-67
2021/11/01 15:39:16;;;;;;;7.57;1.70;;;;;;;;;;4993150;28;20069;-67
2021/11/01 16:19:42;;;;;;;8.50;1.70;;;;;;;;;;4994284;28;20097;-66
2021/11/01 16:22:09;;;;;;;8.23;1.70;;;;;;;;;;5002267;28;20054;-67
2021/11/01 16:24:36;;;;;;;9.95;2.47;;;;;;;;;;4994419;28;20054;-67
2021/11/01 16:27:04;;;;;;;8.32;1.77;;;;;;;;;;5004027;28;20085;-66
2021/11/01 16:29:49;;;;;;;11.10;1.95;;;;;;;;;;4988845;28;20056;-67
2021/11/01 16:32:21;;;;;;;7.40;1.88;;;;;;;;;;5001246;28;20054;-66
2021/11/01 16:34:56;;;;;;;8.43;2.10;;;;;;;;;;4997300;28;20065;-67
2021/11/01 16:37:27;;;;;;;11.15;1.70;;;;;;;;;;5004127;28;20884;-67
2021/11/01 16:39:59;;;;;;;9.30;1.50;;;;;;;;;;5004275;28;20061;-67
2021/11/01 16:42:30;;;;;;;6.30;1.63;;;;;;;;;;4992285;28;20057;-67
2021/11/01 16:45:03;;;;;;;7.63;1.70;;;;;;;;;;4994249;28;20047;-66
2021/11/01 16:47:29;;;;;;;7.75;1.90;;;;;;;;;;4984689;28;20053;-67
2021/11/01 16:49:56;;;;;;;8.57;1.80;;;;;;;;;;5002135;28;20050;-66
2021/11/01 16:52:22;;;;;;;5.65;2.20;;;;;;;;;;4998110;28;20057;-67
2021/11/01 16:54:51;;;;;;;5.10;1.60;;;;;;;;;;4996770;28;20057;-66
2021/11/01 16:57:38;;;;;;;8.02;1.67;;;;;;;;;;4991437;28;20195;-67
2021/11/01 17:05:35;;;;;;;11.23;2.50;;;;;;;;;;5002577;28;20046;-66
2021/11/01 17:35:15;;;;;;;6.03;1.70;;;;;;;;;;5004835;28;20107;-66
2021/11/01 18:39:15;;;;;;;8.25;2.28;;;;;;;;;;5000328;28;20487;-68
2021/11/01 18:41:47;;;;;;;3.95;1.60;;;;;;;;;;4968421;28;20492;-67
2021/11/01 18:44:33;;;;;;;4.43;1.67;;;;;;;;;;4996742;28;20061;-67
2021/11/01 18:52:32;;;;;;;12.25;3.50;;;;;;;;;;4993650;28;20054;-67
2021/11/01 18:55:03;;;;;;;9.77;4.03;;;;;;;;;;5001115;28;20450;-66
2021/11/01 18:57:32;;;;;;;5.80;2.63;;;;;;;;;;4976672;28;20057;-66
2021/11/01 18:59:59;;;;;;;8.63;2.65;;;;;;;;;;4986503;28;20061;-67
2021/11/01 19:05:13;;;;;;;3.85;2.00;;;;;;;;;;4984732;28;20057;-66
2021/11/01 19:07:53;;;;;;;4.45;1.90;;;;;;;;;;4999585;28;20148;-66
2021/11/01 20:03:07;;;;;;;5.60;2.70;;;;;;;;;;4981811;28;20050;-66
2021/11/01 20:09:16;;;;;;;5.05;2.72;;;;;;;;;;4981863;28;20045;-67
2021/11/01 20:11:58;;;;;;;5.68;3.10;;;;;;;;;;5002267;28;20097;-66
2021/11/01 21:27:02;;;;;;;8.32;4.20;;;;;;;;;;4984584;28;20057;-66
2021/11/01 21:29:29;;;;;;;8.80;4.50;;;;;;;;;;4982104;28;20054;-66
2021/11/01 21:31:55;;;;;;;8.18;4.55;;;;;;;;;;4982653;28;20622;-66
2021/11/01 21:34:32;;;;;;;7.65;4.32;;;;;;;;;;4991822;28;20061;-66
2021/11/01 21:36:59;;;;;;;7.45;4.30;;;;;;;;;;4993228;28;20061;-66
2021/11/01 21:39:25;;;;;;;9.30;4.68;;;;;;;;;;4979709;28;20059;-66
2021/11/01 21:41:52;;;;;;;9.05;4.53;;;;;;;;;;4986123;28;20390;-66
2021/11/01 21:44:19;;;;;;;8.02;4.65;;;;;;;;;;4972273;28;20061;-66
2021/11/01 21:46:45;;;;;;;18.65;9.30;;;;;;;;;;4982050;28;20054;-66
2021/11/01 21:49:12;;;;;;;17.42;8.05;;;;;;;;;;4972776;28;20058;-66
2021/11/01 21:51:39;;;;;;;16.45;8.13;;;;;;;;;;4987304;28;20338;-66
2021/11/01 21:57:14;;;;;;;10.15;4.70;;;;;;;;;;4980605;28;20694;-67
2021/11/01 22:21:30;;;;;;;11.60;3.72;;;;;;;;;;4974633;28;20061;-66
2021/11/01 22:34:34;;;;;;;8.13;3.30;;;;;;;;;;4985309;28;20064;-66
2021/11/01 22:42:37;;;;;;;7.63;3.30;;;;;;;;;;4982379;28;20422;-66
2021/11/01 22:58:09;;;;;;;8.80;3.58;;;;;;;;;;4972256;28;20496;-67
2021/11/01 23:00:38;;;;;;;9.18;3.22;;;;;;;;;;4983712;28;20054;-66
2021/11/01 23:03:13;;;;;;;8.35;3.90;;;;;;;;;;4983414;28;20058;-67
2021/11/01 23:06:07;;;;;;;7.72;3.67;;;;;;;;;;4976296;28;20050;-66
2021/11/01 23:33:20;;;;;;;12.48;5.07;;;;;;;;;;4964117;28;20053;-66
2021/11/01 23:35:47;;;;;;;11.57;4.97;;;;;;;;;;4969818;28;20057;-66
2021/11/01 23:38:14;;;;;;;15.57;4.45;;;;;;;;;;4968131;28;20042;-66
2021/11/01 23:40:41;;;;;;;10.55;4.45;;;;;;;;;;4978478;28;20050;-66
2021/11/01 23:43:12;;;;;;;11.88;3.90;;;;;;;;;;4983266;28;20511;-66
2021/11/01 23:45:39;;;;;;;9.85;3.95;;;;;;;;;;4987372;28;20078;-66
2021/11/01 23:48:09;;;;;;;10.88;3.95;;;;;;;;;;4974390;28;20074;-67
2021/11/01 23:50:35;;;;;;;7.18;3.55;;;;;;;;;;4985773;28;20076;-67
2021/11/01 23:53:06;;;;;;;8.65;3.78;;;;;;;;;;4991977;28;20049;-68
2021/11/01 23:55:33;;;;;;;10.20;4.07;;;;;;;;;;4981710;28;20063;-67
2021/11/01 23:58:00;;;;;;;12.68;4.03;;;;;;;;;;4984992;28;20042;-67
